AirNav   Air Wisconsin Up To $57,000 Bonus
 
 724 users online  

KEGT Wellington Municipal Airport
Wellington, Kansas, USA

GOING TO WELLINGTON?


FAA INFORMATION EFFECTIVE 02 DECEMBER 2021

Location

FAA Identifier: EGT
Lat/Long: 37-19-29.9846N 097-23-18.0815W
37-19.499743N 097-23.301358W
37.3249957,-97.3883560
(estimated)
Elevation: 1277 ft. / 389.2 m (surveyed)
Variation: 03E (2020)
From city: 3 miles N of WELLINGTON, KS
Time zone: UTC -6 (UTC -5 during Daylight Saving Time)
Zip code: 67152

Airport Operations

Airport use: Open to the public
Activation date: 11/1942
Control tower: no
ARTCC: KANSAS CITY CENTER
FSS: WICHITA FLIGHT SERVICE STATION
NOTAMs facility: ICT (NOTAM-D service available)
Attendance: MON-FRI 0800-1700
Wind indicator: lighted
Segmented circle: no
Lights: ACTVT REIL RWY 18 & 36; PAPI RWY 18 & 36; HIRL RWY 18/36 - CTAF.
Beacon: white-green (lighted land airport)
Operates sunset to sunrise.

Airport Communications

CTAF/UNICOM: 122.8
WX AWOS-3P: 118.875 (620-326-2470)
WICHITA APPROACH: 134.85
WICHITA DEPARTURE: 134.85
WX ASOS at WLD (19 nm SE): 118.025 (620-221-9121)
WX ASOS at ICT (20 nm N): PHONE 316-945-8022

Nearby radio navigation aids

VOR radial/distance  VOR name  Freq  Var
ICTr153/26.9WICHITA VORTAC113.8007E
PERr337/36.4PIONEER VORTAC113.2006E

Airport Services

Fuel available: 100LL JET-A
A:AFT HRS CALL (620) 440-2213.
100LL:SELF SVC FUEL 100LL AVBL 24 HR WITH CREDIT CARD.
Parking: tiedowns
Airframe service: MAJOR
Powerplant service: MAJOR
Bottled oxygen: NONE
Bulk oxygen: NONE

Runway Information

Runway 18/36

Dimensions: 5201 x 100 ft. / 1585 x 30 m
Surface: concrete, in good condition
Weight bearing capacity: 
Single wheel: 49.0
Double wheel: 60.0
Runway edge lights: high intensity
RUNWAY 18  RUNWAY 36
Latitude: 37-19.928178N37-19.071307N
Longitude: 097-23.306732W097-23.295985W
Elevation: 1276.9 ft.1271.0 ft.
Traffic pattern: leftleft
Runway heading: 176 magnetic, 179 true356 magnetic, 359 true
Markings: nonprecision, in good conditionnonprecision, in good condition
Visual slope indicator: 4-light PAPI on left (3.00 degrees glide path)4-light PAPI on left (3.00 degrees glide path)
Runway end identifier lights: yesyes
Touchdown point: yes, no lightsyes, no lights

Airport Ownership and Management from official FAA records

Ownership: Publicly-owned
Owner: CITY OF WELLINGTON
441 NORTH WEST ROAD
WELLINGTON, KS 67152
Phone (620) 440-2213
Manager: MATTHEW D. WIEBE
441 NORTH WEST ROAD
WELLINGTON, KS 67152
Phone (620) 440-2213

Airport Operational Statistics

Aircraft based on the field: 27
Single engine airplanes: 25
Multi engine airplanes: 2
    
Aircraft operations: avg 50/day *
54% transient general aviation
44% local general aviation
1% commercial
<1% military
* for 12-month period ending 21 May 2021

Additional Remarks

FOR SPECIAL REQS & AFT HRS CALL 620-440-2213.
KEY CODE FOR PILOT LOUNGE 1228
FOR CD CTC WICHITA APCH AT 316-350-1520.

Instrument Procedures

NOTE: All procedures below are presented as PDF files. If you need a reader for these files, you should download the free Adobe Reader.

NOT FOR NAVIGATION. Please procure official charts for flight.
FAA instrument procedures published for use from 02 December 2021 at 0901Z to 30 December 2021 at 0900Z.

 
IAPs - Instrument Approach Procedures
RNAV (GPS) RWY 18   download (261KB)
RNAV (GPS) RWY 36   download (257KB)
VOR RWY 18   download (222KB)
NOTE: Special Take-Off Minimums/Departure Procedures apply   download (259KB)

Other nearby airports with instrument procedures:

KIAB - Mc Connell Air Force Base (19 nm N)
KWLD - Strother Field Airport (19 nm SE)
KICT - Wichita Dwight D Eisenhower National Airport (20 nm N)
KCEA - Cessna Aircraft Field Airport (20 nm N)
KBEC - Beech Factory Airport (24 nm N)
 
Loc | Ops | Rwys | IFR | FBO | Links
Com | Nav | Svcs | Stats | Notes
Area around KEGT (Wellington Municipal Airport)
 
Road maps at: MapQuest Bing Google
 
Aerial photo
WARNING: Photo may not be current or correct
Aerial photo of KEGT (Wellington Municipal Airport)
Photo taken 04-Sep-2015
looking east.

Do you have a better or more recent aerial photo of Wellington Municipal Airport that you would like to share? If so, please send us your photo.

 
Sectional chart

 
Airport distance calculator
Flying to Wellington Municipal Airport? Find the distance to fly.

From to KEGT

Sunrise and sunset
Times for 04-Dec-2021
 Local
(UTC-6)
 Zulu
(UTC)
Morning civil twilight07:0013:00
Sunrise07:2913:29
Sunset17:1123:11
Evening civil twilight17:4023:40

Current date and time
Zulu (UTC)  05-Dec-2021 04:03:06
Local (UTC-6)  04-Dec-2021 22:03:06
 
METAR
KIAB 
18nm N 
050356Z AUTO 13003KT 10SM OVC022 12/02 A3001 RMK AO2 SLP166 T01200019 $
KWLD 
19nm SE 
050354Z AUTO 14003KT 10SM OVC016 13/04 A3002 RMK AO2 SLP165 T01280039
KICT 
20nm N 
050353Z 14003KT 10SM OVC025 12/03 A3001 RMK AO2 SLP162 T01170028
KBEC 
24nm N 
050335Z AUTO 11003KT 10SM OVC026 11/02 A3002 RMK AO2 T01120017
K3AU 
26nm NE 
050330Z AUTO 00000KT 10SM OVC025 11/00 A3003 RMK AO2
KAAO 
27nm N 
050354Z AUTO 00000KT 10SM OVC026 11/02 A3001 RMK AO2 SLP166 T01060022
K1K1 
30nm NE 
050355Z AUTO 10003KT 10SM OVC026 10/02 A3002 RMK AO2 T00970017
KBKN 
35nm S 
050355Z AUTO 14007KT 10SM OVC007 12/11 A3001 RMK AO2
TAF
KIAB 
18nm N 
042107Z 0421/0518 08015G20KT 9999 SKC QNH3010INS BECMG 0423/0424 VRB06KT 9999 BKN025 QNH3007INS BECMG 0514/0515 20012G18KT 9999 SKC QNH2971INS TX13/0421Z TN03/0512Z LAST NO AMDS AFT 0421 NEXT 0505
KICT 
20nm N 
050205Z 0502/0524 14009KT P6SM OVC040 FM050400 16006KT P6SM OVC020 FM051100 19006KT P6SM BKN020 FM051800 22015G23KT P6SM SKC FM052300 33012KT P6SM SKC
NOTAMs
Click for the latest NOTAMs
NOTAMs are issued by the DoD/FAA and will open in a separate window not controlled by AirNav.

 

 
 

FBO, Fuel Providers, and Aircraft Ground Support

  
 Business Name 
 
 Contact 
 
 Services / Description 
 
Fuel Prices
 
Comments
  
 Wellington Municipal Airport
620-440-2213
[web site]
[email]
Aviation fuel, Aircraft parking (ramp or tiedown), Passenger terminal and lounge, Rental cars delivered, Courtesy transportation, Pilots lounge / snooze room, ...
 
Courtesy car   Enterprise Rent-A-Car  
 
More info about Wellington Municipal Airport
Avfuel
100LL Jet A
AS $4.95 --- 
FS --- $3.65 
 Updated 02-Dec-2021
 
   write
AS=Assisted/Self Service
FS=Full service
Update Fuel Prices
 

Aviation Businesses, Services, and Facilities

  
 Business Name 
 
 Contact 
 
 Services / Description 
 
Distance
 
Comments
  
Air Plains Services 620-326-8904
toll-free 800-752-8481
[web site]
[email]
Aircraft maintenance, Avionics sales and service, Aircraft modifications, Aircraft painting, Aircraft interiors, Aircraft cleaning / washing / detailing, Aircraft parts
 
FAA-Approved Repair Station  
 
More info about Air Plains Services
on airport  
   write
 

Would you like to see your business listed on this page?

 If your business provides an interesting product or service to pilots, flight crews, aircraft, or users of the Wellington Municipal Airport, you should consider listing it here.  To start the listing process, click on the button below
 
Add a business
 

Other Pages about Wellington Municipal Airport

cityofwellington.net/municipal-airport
 
Update a link
 
Copyright © AirNav, LLC. All rights reserved. Privacy Policy  Contact